createdAt,value
2019-02-02T00:03:03.414Z,3.51
2019-02-02T00:06:08.909Z,3.57
2019-02-02T00:09:13.743Z,3.76
2019-02-02T00:12:18.485Z,3.84
2019-02-02T00:15:23.235Z,3.85
2019-02-02T00:18:27.655Z,4.00
2019-02-02T00:21:32.366Z,3.89
2019-02-02T00:24:36.865Z,3.88
2019-02-02T00:27:41.853Z,3.92
2019-02-02T00:30:46.473Z,3.99
2019-02-02T00:33:50.934Z,4.00
2019-02-02T00:36:55.393Z,4.11
2019-02-02T00:39:59.835Z,4.17
2019-02-02T00:43:04.716Z,4.26
2019-02-02T00:46:09.236Z,4.09
2019-02-02T00:49:14.029Z,4.02
2019-02-02T00:52:18.477Z,3.80
2019-02-02T00:55:22.997Z,3.89
2019-02-02T00:58:27.445Z,3.83
2019-02-02T01:01:31.886Z,3.71
2019-02-02T01:04:36.334Z,3.79
2019-02-02T01:07:40.780Z,3.64
2019-02-02T01:10:45.500Z,3.72
2019-02-02T01:13:49.945Z,3.50
2019-02-02T01:16:54.383Z,3.29
2019-02-02T01:19:59.070Z,3.26
2019-02-02T01:23:03.577Z,3.40
2019-02-02T01:26:08.151Z,3.21
2019-02-02T01:29:12.956Z,3.14
2019-02-02T01:32:17.686Z,3.12
2019-02-02T01:35:22.617Z,3.24
2019-02-02T01:38:27.060Z,3.24
2019-02-02T01:41:31.514Z,3.28
2019-02-02T01:44:35.939Z,3.09
2019-02-02T01:47:40.380Z,3.22
2019-02-02T01:50:45.144Z,3.13
2019-02-02T01:53:49.585Z,3.27
2019-02-02T01:56:54.032Z,3.09
2019-02-02T01:59:58.481Z,3.05
2019-02-02T02:03:03.087Z,2.94
2019-02-02T02:06:07.777Z,2.85
2019-02-02T02:09:12.608Z,2.76
2019-02-02T02:12:17.047Z,2.88
2019-02-02T02:15:21.868Z,3.00
2019-02-02T02:18:26.319Z,3.08
2019-02-02T02:21:30.758Z,3.21
2019-02-02T02:24:35.191Z,3.32
2019-02-02T02:27:39.699Z,3.20
2019-02-02T02:30:47.243Z,2.92
2019-02-02T02:33:50.309Z,2.63
2019-02-02T02:36:54.751Z,3.00
2019-02-02T02:39:59.190Z,3.21
2019-02-02T02:43:03.935Z,3.09
2019-02-02T02:46:08.374Z,3.14
2019-02-02T02:49:12.808Z,3.10
2019-02-02T02:52:17.511Z,3.01
2019-02-02T02:55:22.030Z,3.17
2019-02-02T02:58:26.465Z,3.37
2019-02-02T03:01:30.907Z,3.23
2019-02-02T03:04:35.351Z,3.30
2019-02-02T03:07:39.861Z,3.22
2019-02-02T03:10:44.696Z,3.27
2019-02-02T03:13:49.115Z,3.13
2019-02-02T03:16:53.633Z,3.42
2019-02-02T03:19:58.059Z,3.36
2019-02-02T03:23:02.500Z,3.46
2019-02-02T03:26:06.941Z,3.30
2019-02-02T03:29:11.717Z,3.29
2019-02-02T03:32:16.167Z,3.17
2019-02-02T03:35:23.984Z,3.25
2019-02-02T03:38:28.683Z,3.27
2019-02-02T03:41:33.112Z,3.16
2019-02-02T03:44:37.558Z,3.15
2019-02-02T03:47:42.219Z,3.09
2019-02-02T03:50:46.629Z,3.06
2019-02-02T03:53:51.067Z,3.17
2019-02-02T03:56:55.828Z,3.13
2019-02-02T04:00:00.268Z,3.12
2019-02-02T04:03:05.100Z,3.23
2019-02-02T04:06:09.516Z,3.20
2019-02-02T04:09:14.325Z,3.19
2019-02-02T04:12:18.757Z,3.25
2019-02-02T04:15:23.498Z,3.20
2019-02-02T04:18:27.935Z,3.20
2019-02-02T04:21:32.370Z,3.23
2019-02-02T04:24:36.815Z,3.24
2019-02-02T04:27:41.606Z,3.37
2019-02-02T04:30:46.331Z,3.53
2019-02-02T04:33:50.774Z,3.34
2019-02-02T04:36:55.211Z,3.27
2019-02-02T04:39:59.666Z,3.42
2019-02-02T04:43:04.118Z,3.40
2019-02-02T04:46:08.633Z,3.41
2019-02-02T04:49:13.391Z,3.29
2019-02-02T04:52:18.117Z,2.98
2019-02-02T04:55:22.633Z,3.15
2019-02-02T04:58:27.070Z,3.24
2019-02-02T05:01:31.500Z,3.19
2019-02-02T05:04:35.948Z,3.08
2019-02-02T05:07:40.397Z,3.33
2019-02-02T05:10:45.173Z,3.28
2019-02-02T05:13:49.619Z,3.32
2019-02-02T05:16:54.319Z,3.27
2019-02-02T05:19:59.062Z,3.24
2019-02-02T05:23:03.790Z,3.17
2019-02-02T05:26:08.297Z,3.29
2019-02-02T05:29:12.741Z,3.44
2019-02-02T05:32:17.469Z,3.46
2019-02-02T05:35:22.304Z,3.43
2019-02-02T05:38:26.815Z,3.36
2019-02-02T05:41:31.556Z,3.46
2019-02-02T05:44:36.283Z,3.46
2019-02-02T05:47:40.724Z,3.43
2019-02-02T05:50:45.155Z,3.45
2019-02-02T05:53:49.866Z,3.46
2019-02-02T05:56:54.296Z,3.56
2019-02-02T05:59:59.046Z,3.44
2019-02-02T06:03:03.752Z,3.60
2019-02-02T06:06:08.188Z,3.55
2019-02-02T06:09:12.904Z,3.59
2019-02-02T06:12:17.338Z,3.68
2019-02-02T06:15:22.074Z,3.81
2019-02-02T06:18:26.794Z,3.79
2019-02-02T06:21:31.227Z,3.76
2019-02-02T06:24:35.942Z,3.76
2019-02-02T06:27:40.674Z,3.94
2019-02-02T06:30:45.112Z,3.94
2019-02-02T06:33:49.566Z,3.82
2019-02-02T06:36:54.247Z,3.81
2019-02-02T06:39:58.694Z,3.87
2019-02-02T06:43:03.127Z,3.97
2019-02-02T06:46:07.829Z,3.94
2019-02-02T06:49:12.556Z,3.99
2019-02-02T06:52:17.059Z,3.91
2019-02-02T06:55:21.821Z,4.00
2019-02-02T06:58:26.544Z,3.94
2019-02-02T07:01:30.996Z,3.70
2019-02-02T07:04:35.461Z,3.50
2019-02-02T07:07:39.897Z,3.29
2019-02-02T07:10:44.648Z,3.27
2019-02-02T07:13:49.378Z,3.35
2019-02-02T07:16:53.811Z,3.36
2019-02-02T07:19:58.249Z,3.38
2019-02-02T07:23:02.698Z,3.38
2019-02-02T07:26:07.483Z,3.31
2019-02-02T07:29:12.216Z,3.34
2019-02-02T07:32:16.645Z,3.59
2019-02-02T07:35:21.468Z,3.58
2019-02-02T07:38:25.902Z,3.79
2019-02-02T07:41:30.633Z,3.74
2019-02-02T07:44:35.126Z,3.80
2019-02-02T07:47:39.883Z,4.01
2019-02-02T07:50:44.325Z,3.91
2019-02-02T07:53:48.769Z,3.83
2019-02-02T07:56:53.213Z,3.65
2019-02-02T07:59:57.984Z,3.62
2019-02-02T08:03:02.861Z,3.54
2019-02-02T08:06:07.553Z,3.54
2019-02-02T08:09:12.226Z,3.45
2019-02-02T08:12:19.434Z,3.39
2019-02-02T08:15:30.307Z,3.43
2019-02-02T08:18:34.739Z,3.33
2019-02-02T08:21:39.180Z,3.32
2019-02-02T08:24:44.479Z,3.36
2019-02-02T08:27:49.271Z,3.15
2019-02-02T08:30:53.999Z,3.14
2019-02-02T08:33:58.438Z,3.30
2019-02-02T08:37:02.881Z,3.46
2019-02-02T08:40:14.888Z,3.71
2019-02-02T08:43:19.407Z,3.72
2019-02-02T08:46:23.891Z,4.04
2019-02-02T08:49:28.397Z,3.98
2019-02-02T08:52:32.834Z,3.90
2019-02-02T08:55:37.450Z,3.99
2019-02-02T08:58:41.893Z,4.42
2019-02-02T09:01:48.213Z,4.70
2019-02-02T09:04:52.791Z,4.63
2019-02-02T09:07:57.233Z,4.58
2019-02-02T09:11:01.953Z,4.64
2019-02-02T09:14:06.693Z,4.61
2019-02-02T09:17:11.132Z,4.77
2019-02-02T09:20:17.046Z,4.92
2019-02-02T09:23:21.488Z,5.10
2019-02-02T09:26:26.331Z,5.06
2019-02-02T09:29:30.764Z,5.05
2019-02-02T09:32:35.472Z,5.15
2019-02-02T09:35:39.912Z,5.00
2019-02-02T09:38:44.626Z,5.05
2019-02-02T09:41:49.069Z,5.06
2019-02-02T09:44:53.583Z,5.27
2019-02-02T09:47:58.113Z,5.34
2019-02-02T09:51:02.546Z,5.51
2019-02-02T09:54:09.095Z,5.33
2019-02-02T09:57:13.424Z,5.36
2019-02-02T10:00:21.938Z,5.83
2019-02-02T10:03:26.679Z,7.55
2019-02-02T10:06:31.136Z,8.79
2019-02-02T10:09:37.833Z,10.01
2019-02-02T10:12:42.219Z,11.52
2019-02-02T10:15:46.659Z,13.16
2019-02-02T10:18:51.105Z,14.22
2019-02-02T10:21:55.545Z,14.33
2019-02-02T10:25:00.404Z,15.18
2019-02-02T10:28:06.365Z,16.04
2019-02-02T10:31:10.801Z,16.47
2019-02-02T10:34:15.257Z,16.58
2019-02-02T10:37:20.053Z,17.37
2019-02-02T10:40:24.491Z,17.36
2019-02-02T10:43:29.198Z,17.93
2019-02-02T10:46:33.639Z,18.39
2019-02-02T10:49:38.099Z,19.11
2019-02-02T10:52:42.535Z,19.30
2019-02-02T10:55:46.989Z,18.17
2019-02-02T10:58:51.474Z,17.86
2019-02-02T11:01:55.887Z,17.33
2019-02-02T11:05:00.406Z,16.34
2019-02-02T11:08:06.363Z,15.08
2019-02-02T11:11:11.091Z,13.81
2019-02-02T11:14:15.809Z,12.50
2019-02-02T11:17:20.245Z,11.18
2019-02-02T11:20:30.850Z,10.57
2019-02-02T11:23:35.354Z,9.74
2019-02-02T11:26:39.768Z,9.08
2019-02-02T11:29:44.233Z,8.71
2019-02-02T11:32:48.790Z,8.65
2019-02-02T11:35:53.509Z,9.46
2019-02-02T11:38:59.648Z,9.60
2019-02-02T11:42:04.617Z,8.96
2019-02-02T11:45:12.668Z,9.11
2019-02-02T11:48:17.106Z,8.87
2019-02-02T11:51:21.873Z,9.39
2019-02-02T11:54:26.323Z,10.04
2019-02-02T11:57:31.026Z,11.24
2019-02-02T12:00:41.829Z,12.00
2019-02-02T12:03:46.273Z,13.92
2019-02-02T12:06:51.060Z,14.16
2019-02-02T12:09:55.515Z,14.46
2019-02-02T12:12:59.954Z,14.14
2019-02-02T12:16:04.403Z,13.55
2019-02-02T12:19:09.234Z,11.65
2019-02-02T12:22:13.688Z,10.89
2019-02-02T12:25:18.210Z,11.85
2019-02-02T12:28:22.652Z,11.87
2019-02-02T12:31:27.165Z,11.88
2019-02-02T12:34:31.614Z,11.83
2019-02-02T12:37:36.126Z,11.13
2019-02-02T12:40:40.847Z,10.58
2019-02-02T12:43:45.582Z,10.25
2019-02-02T12:46:50.020Z,9.75
2019-02-02T12:49:54.725Z,9.48
2019-02-02T12:52:59.168Z,8.88
2019-02-02T12:56:03.887Z,8.59
2019-02-02T12:59:08.451Z,8.57
2019-02-02T13:02:12.945Z,8.51
2019-02-02T13:05:21.028Z,8.56
2019-02-02T13:08:25.774Z,8.67
2019-02-02T13:11:30.220Z,8.64
2019-02-02T13:14:34.649Z,8.72
2019-02-02T13:17:39.356Z,8.37
2019-02-02T13:20:43.850Z,8.11
2019-02-02T13:23:48.285Z,8.16
2019-02-02T13:26:53.031Z,8.37
2019-02-02T13:29:57.764Z,8.56
2019-02-02T13:33:02.501Z,8.73
2019-02-02T13:36:07.532Z,9.05
2019-02-02T13:39:12.299Z,9.31
2019-02-02T13:42:17.090Z,9.41
2019-02-02T13:45:23.241Z,9.36
2019-02-02T13:48:27.987Z,9.23
2019-02-02T13:51:32.423Z,9.10
2019-02-02T13:54:36.916Z,9.00
2019-02-02T13:57:41.361Z,8.88
2019-02-02T14:00:46.092Z,8.85
2019-02-02T14:03:50.586Z,8.87
2019-02-02T14:06:55.034Z,8.87
2019-02-02T14:09:59.773Z,8.90
2019-02-02T14:13:04.510Z,8.98
2019-02-02T14:16:09.239Z,9.04
2019-02-02T14:19:13.776Z,8.96
2019-02-02T14:22:18.218Z,8.84
2019-02-02T14:25:22.725Z,8.73
2019-02-02T14:28:28.751Z,8.69
2019-02-02T14:31:33.522Z,8.64
2019-02-02T14:34:40.231Z,8.54
2019-02-02T14:37:44.399Z,8.29
2019-02-02T14:40:49.131Z,8.32
2019-02-02T14:43:55.894Z,8.15
2019-02-02T14:47:00.077Z,8.00
2019-02-02T14:50:07.819Z,7.96
2019-02-02T14:53:12.559Z,7.94
2019-02-02T14:56:16.988Z,7.83
2019-02-02T14:59:21.430Z,7.94
2019-02-02T15:02:25.856Z,7.80
2019-02-02T15:05:42.162Z,7.71
2019-02-02T15:08:36.822Z,7.75
2019-02-02T15:11:41.557Z,7.78
2019-02-02T15:14:46.290Z,7.63
2019-02-02T15:17:50.799Z,7.59
2019-02-02T15:20:55.235Z,7.52
2019-02-02T15:23:59.673Z,7.43
2019-02-02T15:27:04.403Z,7.26
2019-02-02T15:30:13.394Z,7.31
2019-02-02T15:33:18.151Z,7.24
2019-02-02T15:36:22.582Z,7.22
2019-02-02T15:39:27.031Z,7.15
2019-02-02T15:42:31.461Z,7.10
2019-02-02T15:45:36.154Z,7.16
2019-02-02T15:48:42.557Z,7.12
2019-02-02T15:51:46.749Z,7.29
2019-02-02T15:54:51.477Z,7.25
2019-02-02T15:57:56.310Z,7.17
2019-02-02T16:01:01.046Z,7.11
2019-02-02T16:04:05.562Z,7.25
2019-02-02T16:07:10.294Z,7.09
2019-02-02T16:10:18.809Z,6.98
2019-02-02T16:13:23.239Z,6.93
2019-02-02T16:16:27.688Z,7.06
2019-02-02T16:19:32.403Z,7.02
2019-02-02T16:22:37.128Z,7.06
2019-02-02T16:25:41.567Z,7.09
2019-02-02T16:28:45.996Z,6.97
2019-02-02T16:31:50.701Z,6.93
2019-02-02T16:34:55.427Z,6.85
2019-02-02T16:37:59.858Z,6.74
2019-02-02T16:41:04.583Z,6.63
2019-02-02T16:44:09.084Z,6.54
2019-02-02T16:47:13.841Z,6.51
2019-02-02T16:50:22.058Z,6.33
2019-02-02T16:53:26.484Z,6.21
2019-02-02T16:56:31.208Z,6.15
2019-02-02T16:59:36.124Z,6.04
2019-02-02T17:02:40.557Z,5.86
2019-02-02T17:05:45.398Z,5.95
2019-02-02T17:08:49.827Z,5.89
2019-02-02T17:11:54.556Z,5.78
2019-02-02T17:14:59.003Z,5.38
2019-02-02T17:18:03.499Z,5.22
2019-02-02T17:21:08.232Z,5.28
2019-02-02T17:24:12.663Z,5.23
2019-02-02T17:27:17.106Z,5.09
2019-02-02T17:30:26.158Z,5.08
2019-02-02T17:33:30.628Z,5.10
2019-02-02T17:36:35.066Z,5.11
2019-02-02T17:39:39.495Z,5.12
2019-02-02T17:42:44.425Z,4.83
2019-02-02T17:45:48.871Z,4.65
2019-02-02T17:48:53.304Z,4.64
2019-02-02T17:51:57.999Z,4.72
2019-02-02T17:55:02.726Z,4.98
2019-02-02T17:58:07.164Z,4.81
2019-02-02T18:01:11.603Z,4.64
2019-02-02T18:04:16.038Z,4.61
2019-02-02T18:07:20.735Z,4.48
2019-02-02T18:10:25.167Z,4.23
2019-02-02T18:13:29.892Z,4.10
2019-02-02T18:16:34.335Z,3.97
2019-02-02T18:19:38.769Z,3.97
2019-02-02T18:22:43.285Z,3.90
2019-02-02T18:25:47.714Z,3.98
2019-02-02T18:28:53.961Z,4.04
2019-02-02T18:31:58.480Z,4.11
2019-02-02T18:35:02.924Z,4.04
2019-02-02T18:38:07.736Z,4.08
2019-02-02T18:41:12.172Z,4.17
2019-02-02T18:44:16.606Z,4.12
2019-02-02T18:47:21.315Z,4.18
2019-02-02T18:50:26.146Z,4.23
2019-02-02T18:53:30.876Z,4.25
2019-02-02T18:56:35.323Z,4.29
2019-02-02T18:59:39.814Z,4.37
2019-02-02T19:02:44.274Z,4.48
2019-02-02T19:05:48.978Z,4.63
2019-02-02T19:08:53.500Z,4.66
2019-02-02T19:11:57.940Z,4.65
2019-02-02T19:15:02.600Z,4.68
2019-02-02T19:18:08.271Z,4.71
2019-02-02T19:21:13.039Z,4.71
2019-02-02T19:24:17.781Z,4.77
2019-02-02T19:27:22.517Z,4.81
2019-02-02T19:30:33.274Z,5.01
2019-02-02T19:33:38.135Z,4.96
2019-02-02T19:36:42.513Z,5.00
2019-02-02T19:39:47.268Z,5.00
2019-02-02T19:42:51.996Z,4.99
2019-02-02T19:45:56.731Z,5.00
2019-02-02T19:49:01.168Z,4.97
2019-02-02T19:52:05.994Z,4.90
2019-02-02T19:55:14.690Z,4.92
2019-02-02T19:58:16.892Z,4.84
2019-02-02T20:01:21.326Z,4.88
2019-02-02T20:04:25.820Z,5.09
2019-02-02T20:07:30.560Z,5.16
2019-02-02T20:10:35.003Z,5.36
2019-02-02T20:13:39.712Z,5.33
2019-02-02T20:16:44.159Z,5.28
2019-02-02T20:19:48.615Z,5.23
2019-02-02T20:22:53.920Z,5.24
2019-02-02T20:25:58.952Z,5.22
2019-02-02T20:29:03.956Z,5.24
2019-02-02T20:32:08.414Z,5.27
2019-02-02T20:35:15.574Z,5.31
2019-02-02T20:38:20.010Z,5.35
2019-02-02T20:41:24.450Z,5.36
2019-02-02T20:44:28.894Z,5.34
2019-02-02T20:47:33.403Z,5.30
2019-02-02T20:50:38.235Z,5.34
2019-02-02T20:53:42.633Z,5.33
2019-02-02T20:56:47.068Z,5.34
2019-02-02T20:59:51.511Z,5.33
2019-02-02T21:02:56.644Z,5.32
2019-02-02T21:06:01.374Z,5.37
2019-02-02T21:09:07.527Z,5.36
2019-02-02T21:12:12.289Z,5.34
2019-02-02T21:15:17.695Z,5.34
2019-02-02T21:18:22.284Z,5.35
2019-02-02T21:21:27.089Z,5.33
2019-02-02T21:24:31.568Z,5.39
2019-02-02T21:27:36.012Z,5.52
2019-02-02T21:30:40.499Z,5.46
2019-02-02T21:33:45.287Z,5.42
2019-02-02T21:36:49.754Z,5.45
2019-02-02T21:39:54.199Z,5.44
2019-02-02T21:42:58.810Z,5.33
2019-02-02T21:46:03.428Z,5.40
2019-02-02T21:49:08.318Z,5.41
2019-02-02T21:52:12.763Z,5.53
2019-02-02T21:55:23.991Z,5.52
2019-02-02T21:58:28.500Z,5.46
2019-02-02T22:01:33.271Z,5.33
2019-02-02T22:04:37.740Z,5.32
2019-02-02T22:07:42.536Z,5.33
2019-02-02T22:10:47.264Z,5.35
2019-02-02T22:13:51.733Z,5.56
2019-02-02T22:16:56.550Z,5.56
2019-02-02T22:20:01.069Z,5.59
2019-02-02T22:23:05.882Z,5.68
2019-02-02T22:26:10.654Z,5.55
2019-02-02T22:29:15.107Z,5.53
2019-02-02T22:32:19.560Z,5.48
2019-02-02T22:35:24.161Z,5.47
2019-02-02T22:38:28.671Z,5.30
2019-02-02T22:41:33.118Z,5.29
2019-02-02T22:44:37.744Z,5.24
2019-02-02T22:48:02.254Z,5.23
2019-02-02T22:51:07.191Z,5.34
2019-02-02T22:54:11.642Z,5.42
2019-02-02T22:57:16.161Z,5.44
2019-02-02T23:00:50.065Z,5.34
2019-02-02T23:04:10.663Z,5.31
2019-02-02T23:07:22.777Z,5.17
2019-02-02T23:10:49.821Z,5.11
2019-02-02T23:14:13.142Z,5.07
2019-02-02T23:17:17.588Z,5.03
2019-02-02T23:20:22.334Z,4.98
2019-02-02T23:23:26.786Z,4.93
2019-02-02T23:26:31.321Z,4.96
2019-02-02T23:29:36.028Z,4.90
2019-02-02T23:32:40.747Z,4.96
2019-02-02T23:35:45.208Z,4.95
2019-02-02T23:38:50.020Z,4.96
2019-02-02T23:41:54.848Z,5.12
2019-02-02T23:44:59.282Z,5.18
2019-02-02T23:48:03.722Z,5.42
2019-02-02T23:51:08.164Z,5.42
2019-02-02T23:54:12.598Z,5.59
2019-02-02T23:57:17.046Z,5.58
